createdAt,value
2018-01-06T00:00:05.889Z,91.1
2018-01-06T00:01:08.385Z,91
2018-01-06T00:02:10.890Z,91
2018-01-06T00:03:13.385Z,91.1
2018-01-06T00:04:15.885Z,91.1
2018-01-06T00:05:18.380Z,91.1
2018-01-06T00:06:21.486Z,91.1
2018-01-06T00:07:23.977Z,91.1
2018-01-06T00:08:26.477Z,91.1
2018-01-06T00:09:28.961Z,91
2018-01-06T00:10:31.752Z,91
2018-01-06T00:11:34.252Z,91
2018-01-06T00:12:36.740Z,91
2018-01-06T00:13:39.243Z,91.1
2018-01-06T00:14:41.741Z,91.1
2018-01-06T00:15:44.240Z,91.1
2018-01-06T00:16:46.738Z,91.2
2018-01-06T00:17:49.521Z,91.2
2018-01-06T00:18:52.320Z,91.3
2018-01-06T00:19:54.818Z,91.3
2018-01-06T00:20:57.323Z,91.2
2018-01-06T00:22:00.114Z,91.2
2018-01-06T00:23:02.595Z,91.1
2018-01-06T00:24:05.082Z,91.1
2018-01-06T00:25:07.868Z,91.2
2018-01-06T00:26:10.381Z,91.3
2018-01-06T00:27:12.861Z,91.2
2018-01-06T00:28:15.363Z,91.2
2018-01-06T00:29:17.861Z,91.2
2018-01-06T00:30:20.645Z,91.2
2018-01-06T00:31:23.160Z,91.2
2018-01-06T00:32:25.942Z,91.3
2018-01-06T00:33:28.427Z,91.3
2018-01-06T00:34:31.221Z,91.3
2018-01-06T00:35:33.998Z,91.2
2018-01-06T00:36:36.792Z,91.2
2018-01-06T00:37:39.287Z,91.3
2018-01-06T00:38:41.784Z,91.2
2018-01-06T00:39:44.267Z,91.1
2018-01-06T00:40:46.773Z,91.2
2018-01-06T00:41:49.262Z,91.2
2018-01-06T00:42:51.757Z,91.3
2018-01-06T00:43:54.249Z,91.3
2018-01-06T00:44:56.740Z,91.2
2018-01-06T00:45:59.233Z,91.1
2018-01-06T00:47:01.741Z,91.3
2018-01-06T00:48:04.237Z,91.2
2018-01-06T00:49:06.731Z,91.1
2018-01-06T00:50:09.227Z,91
2018-01-06T00:51:11.709Z,91
2018-01-06T00:52:14.193Z,91.1
2018-01-06T00:53:16.688Z,91.1
2018-01-06T00:54:19.196Z,91.1
2018-01-06T00:55:22.037Z,91.2
2018-01-06T00:56:24.532Z,91.1
2018-01-06T00:57:27.029Z,91.1
2018-01-06T00:58:29.535Z,91.1
2018-01-06T00:59:32.043Z,91.1
2018-01-06T01:00:34.826Z,91
2018-01-06T01:01:37.315Z,91
2018-01-06T01:02:39.807Z,91
2018-01-06T01:03:42.305Z,91
2018-01-06T01:04:44.801Z,90.9
2018-01-06T01:05:47.294Z,90.9
2018-01-06T01:06:49.789Z,90.9
2018-01-06T01:07:52.277Z,90.9
2018-01-06T01:08:54.777Z,90.9
2018-01-06T01:09:57.273Z,90.9
2018-01-06T01:10:59.757Z,90.9
2018-01-06T01:12:02.257Z,90.9
2018-01-06T01:13:04.757Z,90.9
2018-01-06T01:14:07.247Z,90.8
2018-01-06T01:15:09.748Z,90.8
2018-01-06T01:16:12.235Z,90.8
2018-01-06T01:17:15.019Z,90.7
2018-01-06T01:18:17.531Z,90.7
2018-01-06T01:19:20.012Z,90.7
2018-01-06T01:20:22.514Z,90.7
2018-01-06T01:21:25.016Z,90.7
2018-01-06T01:22:27.504Z,90.7
2018-01-06T01:23:29.983Z,90.6
2018-01-06T01:24:32.490Z,90.6
2018-01-06T01:25:34.988Z,90.6
2018-01-06T01:26:37.480Z,90.6
2018-01-06T01:27:39.978Z,90.6
2018-01-06T01:28:42.467Z,90.6
2018-01-06T01:29:44.962Z,90.6
2018-01-06T01:30:47.467Z,90.6
2018-01-06T01:31:49.954Z,90.6
2018-01-06T01:32:52.742Z,90.6
2018-01-06T01:33:55.243Z,90.6
2018-01-06T01:34:57.722Z,90.5
2018-01-06T01:36:00.509Z,90.4
2018-01-06T01:37:03.009Z,90.4
2018-01-06T01:38:05.503Z,90.4
2018-01-06T01:39:08.010Z,90.4
2018-01-06T01:40:10.507Z,90.3
2018-01-06T01:41:12.999Z,90.3
2018-01-06T01:42:15.511Z,90.3
2018-01-06T01:43:18.010Z,90.3
2018-01-06T01:44:20.488Z,90.3
2018-01-06T01:45:22.985Z,90.2
2018-01-06T01:46:25.761Z,90.2
2018-01-06T01:47:28.259Z,90.2
2018-01-06T01:48:30.743Z,90.2
2018-01-06T01:49:33.266Z,90.2
2018-01-06T01:50:36.041Z,90.2
2018-01-06T01:51:38.528Z,90.2
2018-01-06T01:52:41.031Z,90.2
2018-01-06T01:53:43.812Z,90.2
2018-01-06T01:54:46.304Z,90.2
2018-01-06T01:55:48.801Z,90.1
2018-01-06T01:56:51.281Z,90.1
2018-01-06T01:57:54.064Z,90.1
2018-01-06T01:58:56.579Z,90
2018-01-06T01:59:59.058Z,90
2018-01-06T02:01:01.854Z,89.8
2018-01-06T02:02:04.412Z,89.8
2018-01-06T02:03:06.911Z,89.4
2018-01-06T02:04:09.410Z,89.4
2018-01-06T02:05:11.902Z,89.3
2018-01-06T02:06:14.387Z,89.4
2018-01-06T02:07:16.893Z,89.5
2018-01-06T02:08:19.381Z,89.5
2018-01-06T02:09:21.880Z,89.6
2018-01-06T02:10:24.970Z,89.5
2018-01-06T02:11:27.470Z,89.5
2018-01-06T02:12:29.960Z,89.3
2018-01-06T02:13:32.458Z,89.3
2018-01-06T02:14:34.952Z,89.2
2018-01-06T02:15:37.436Z,89.1
2018-01-06T02:16:39.924Z,89.2
2018-01-06T02:17:42.727Z,89
2018-01-06T02:18:45.221Z,89.2
2018-01-06T02:19:47.720Z,89.1
2018-01-06T02:20:50.215Z,89.2
2018-01-06T02:21:52.713Z,89.1
2018-01-06T02:22:55.197Z,89.2
2018-01-06T02:23:57.696Z,89.2
2018-01-06T02:25:00.196Z,89.1
2018-01-06T02:26:02.690Z,89.2
2018-01-06T02:27:05.186Z,89
2018-01-06T02:28:07.677Z,88.9
2018-01-06T02:29:10.171Z,88.8
2018-01-06T02:30:12.983Z,88.8
2018-01-06T02:31:15.478Z,88.8
2018-01-06T02:32:18.274Z,88.9
2018-01-06T02:33:21.061Z,89
2018-01-06T02:34:23.546Z,89
2018-01-06T02:35:26.041Z,89.1
2018-01-06T02:36:28.538Z,88.9
2018-01-06T02:37:31.022Z,89.1
2018-01-06T02:38:33.519Z,89.3
2018-01-06T02:39:36.305Z,89.2
2018-01-06T02:40:39.088Z,89.3
2018-01-06T02:41:41.593Z,89.2
2018-01-06T02:42:44.371Z,89.2
2018-01-06T02:43:46.870Z,89.3
2018-01-06T02:44:49.364Z,89.1
2018-01-06T02:45:51.862Z,89.2
2018-01-06T02:46:54.653Z,89.2
2018-01-06T02:47:57.145Z,89.1
2018-01-06T02:48:59.659Z,88.9
2018-01-06T02:50:02.452Z,89
2018-01-06T02:51:04.925Z,89.3
2018-01-06T02:52:07.424Z,89.3
2018-01-06T02:53:09.914Z,89.2
2018-01-06T02:54:12.412Z,89.1
2018-01-06T02:55:14.914Z,89.3
2018-01-06T02:56:17.397Z,89.4
2018-01-06T02:57:20.196Z,89.4
2018-01-06T02:58:22.706Z,89.4
2018-01-06T02:59:25.485Z,89.5
2018-01-06T03:00:28.264Z,89.7
2018-01-06T03:01:30.764Z,89.6
2018-01-06T03:02:33.234Z,89.9
2018-01-06T03:03:36.031Z,89.8
2018-01-06T03:04:38.528Z,89.9
2018-01-06T03:05:41.010Z,89.9
2018-01-06T03:06:43.519Z,89.9
2018-01-06T03:07:46.013Z,90
2018-01-06T03:08:48.504Z,90
2018-01-06T03:09:51.000Z,90
2018-01-06T03:10:53.485Z,90.1
2018-01-06T03:11:56.265Z,90.1
2018-01-06T03:12:58.785Z,90.1
2018-01-06T03:14:01.281Z,90.1
2018-01-06T03:15:03.772Z,90.1
2018-01-06T03:16:06.584Z,90.1
2018-01-06T03:17:09.366Z,90
2018-01-06T03:18:11.861Z,90
2018-01-06T03:19:14.669Z,90
2018-01-06T03:20:17.163Z,90
2018-01-06T03:21:19.661Z,90
2018-01-06T03:22:22.419Z,90.1
2018-01-06T03:23:24.914Z,90.1
2018-01-06T03:24:27.425Z,90.2
2018-01-06T03:25:29.912Z,90.2
2018-01-06T03:26:32.413Z,90.3
2018-01-06T03:27:34.906Z,90.3
2018-01-06T03:28:37.402Z,90.3
2018-01-06T03:29:40.200Z,90.3
2018-01-06T03:30:42.692Z,90.3
2018-01-06T03:31:45.170Z,90.2
2018-01-06T03:32:47.951Z,90.2
2018-01-06T03:33:50.497Z,90.2
2018-01-06T03:34:52.940Z,90.1
2018-01-06T03:35:55.441Z,90
2018-01-06T03:36:57.923Z,90.1
2018-01-06T03:38:00.980Z,90
2018-01-06T03:39:03.481Z,90
2018-01-06T03:40:05.977Z,89.9
2018-01-06T03:41:08.810Z,90
2018-01-06T03:42:11.306Z,89.9
2018-01-06T03:43:13.800Z,89.8
2018-01-06T03:44:16.304Z,89.6
2018-01-06T03:45:18.801Z,89.6
2018-01-06T03:46:21.278Z,89.7
2018-01-06T03:47:24.068Z,89.7
2018-01-06T03:48:26.564Z,89.7
2018-01-06T03:49:29.066Z,89.6
2018-01-06T03:50:31.850Z,89.7
2018-01-06T03:51:34.634Z,89.7
2018-01-06T03:52:37.126Z,89.8
2018-01-06T03:53:39.616Z,89.7
2018-01-06T03:54:42.114Z,89.6
2018-01-06T03:55:44.611Z,89.4
2018-01-06T03:56:47.094Z,89.4
2018-01-06T03:57:49.596Z,89.5
2018-01-06T03:58:52.084Z,89.6
2018-01-06T03:59:55.167Z,89.7
2018-01-06T04:00:58.246Z,89.7
2018-01-06T04:02:00.744Z,89.5
2018-01-06T04:03:03.829Z,89.6
2018-01-06T04:04:06.332Z,89.7
2018-01-06T04:05:08.823Z,89.6
2018-01-06T04:06:11.605Z,89.8
2018-01-06T04:07:14.391Z,89.6
2018-01-06T04:08:16.879Z,89.6
2018-01-06T04:09:19.370Z,89.6
2018-01-06T04:10:21.865Z,89.7
2018-01-06T04:11:24.637Z,89.6
2018-01-06T04:12:27.152Z,89.6
2018-01-06T04:13:29.637Z,89.7
2018-01-06T04:14:32.134Z,89.6
2018-01-06T04:15:34.624Z,89.4
2018-01-06T04:16:37.112Z,89.4
2018-01-06T04:17:39.610Z,89.5
2018-01-06T04:18:42.102Z,89.5
2018-01-06T04:19:44.876Z,89.5
2018-01-06T04:20:47.378Z,89.7
2018-01-06T04:21:49.862Z,89.8
2018-01-06T04:22:52.656Z,90.2
2018-01-06T04:23:55.144Z,90.2
2018-01-06T04:24:57.639Z,90.2
2018-01-06T04:26:00.132Z,90.2
2018-01-06T04:27:02.631Z,90.2
2018-01-06T04:28:05.119Z,90.1
2018-01-06T04:29:07.915Z,90.2
2018-01-06T04:30:10.402Z,90.2
2018-01-06T04:31:13.202Z,90.1
2018-01-06T04:32:15.695Z,90.1
2018-01-06T04:33:18.186Z,90.1
2018-01-06T04:34:20.670Z,90
2018-01-06T04:35:23.166Z,90
2018-01-06T04:36:25.661Z,90.1
2018-01-06T04:37:28.159Z,90.1
2018-01-06T04:38:30.643Z,90
2018-01-06T04:39:33.139Z,90
2018-01-06T04:40:35.628Z,90
2018-01-06T04:41:38.124Z,90.1
2018-01-06T04:42:40.613Z,90.1
2018-01-06T04:43:43.393Z,90.1
2018-01-06T04:44:45.872Z,90.1
2018-01-06T04:45:48.369Z,90.2
2018-01-06T04:46:50.865Z,90.2
2018-01-06T04:47:53.343Z,90.2
2018-01-06T04:48:55.840Z,90.3
2018-01-06T04:49:58.340Z,90.3
2018-01-06T04:51:01.129Z,90.3
2018-01-06T04:52:03.627Z,90.3
2018-01-06T04:53:06.116Z,90.4
2018-01-06T04:54:08.598Z,90.4
2018-01-06T04:55:11.111Z,90.4
2018-01-06T04:56:13.602Z,90.4
2018-01-06T04:57:16.087Z,90.3
2018-01-06T04:58:18.877Z,90.4
2018-01-06T04:59:21.369Z,90.4
2018-01-06T05:00:23.859Z,90.4
2018-01-06T05:01:26.364Z,90.3
2018-01-06T05:02:28.843Z,90.4
2018-01-06T05:03:31.338Z,90.3
2018-01-06T05:04:33.825Z,90.3
2018-01-06T05:05:36.616Z,90.4
2018-01-06T05:06:39.113Z,90.4
2018-01-06T05:07:41.604Z,90.4
2018-01-06T05:08:44.096Z,90.5
2018-01-06T05:09:46.666Z,90.5
2018-01-06T05:10:49.372Z,90.6
2018-01-06T05:11:52.151Z,90.6
2018-01-06T05:12:54.639Z,90.5
2018-01-06T05:13:57.182Z,90.6
2018-01-06T05:15:00.026Z,90.7
2018-01-06T05:16:02.506Z,90.6
2018-01-06T05:17:04.999Z,90.7
2018-01-06T05:18:08.078Z,90.7
2018-01-06T05:19:10.559Z,90.7
2018-01-06T05:20:13.045Z,90.7
2018-01-06T05:21:15.550Z,90.7
2018-01-06T05:22:18.039Z,90.7
2018-01-06T05:23:20.529Z,90.7
2018-01-06T05:24:23.187Z,90.7
2018-01-06T05:25:25.720Z,90.7
2018-01-06T05:26:28.227Z,90.7
2018-01-06T05:27:30.722Z,90.7
2018-01-06T05:28:33.192Z,90.8
2018-01-06T05:29:35.975Z,90.8
2018-01-06T05:30:38.788Z,90.7
2018-01-06T05:31:41.276Z,90.7
2018-01-06T05:32:43.780Z,90.7
2018-01-06T05:33:46.564Z,90.6
2018-01-06T05:34:49.057Z,90.6
2018-01-06T05:35:51.564Z,90.7
2018-01-06T05:36:54.054Z,90.7
2018-01-06T05:37:56.556Z,90.7
2018-01-06T05:38:59.044Z,90.7
2018-01-06T05:40:01.541Z,90.8
2018-01-06T05:41:04.041Z,90.8
2018-01-06T05:42:06.533Z,90.7
2018-01-06T05:43:09.354Z,90.7
2018-01-06T05:44:12.135Z,90.7
2018-01-06T05:45:14.635Z,90.8
2018-01-06T05:46:17.133Z,90.4
2018-01-06T05:47:19.614Z,90.4
2018-01-06T05:48:22.107Z,90.5
2018-01-06T05:49:24.908Z,90.4
2018-01-06T05:50:27.380Z,90.4
2018-01-06T05:51:30.160Z,90.4
2018-01-06T05:52:32.664Z,90.4
2018-01-06T05:53:35.144Z,90.4
2018-01-06T05:54:37.656Z,90.4
2018-01-06T05:55:40.159Z,90.3
2018-01-06T05:56:42.662Z,90.3
2018-01-06T05:57:45.147Z,90.3
2018-01-06T05:58:47.642Z,90.2
2018-01-06T05:59:50.126Z,90.2
2018-01-06T06:00:52.634Z,90.2
2018-01-06T06:01:55.407Z,90.2
2018-01-06T06:02:57.910Z,90.2
2018-01-06T06:04:00.397Z,90.2
2018-01-06T06:05:02.891Z,90.2
2018-01-06T06:06:05.382Z,90.1
2018-01-06T06:07:07.891Z,90
2018-01-06T06:08:10.366Z,90
2018-01-06T06:09:12.873Z,90.1
2018-01-06T06:10:15.367Z,90.1
2018-01-06T06:11:18.538Z,90.1
2018-01-06T06:12:21.030Z,90.2
2018-01-06T06:13:23.527Z,90.2
2018-01-06T06:14:26.300Z,90.1
2018-01-06T06:15:28.799Z,90.1
2018-01-06T06:16:31.307Z,90.2
2018-01-06T06:17:33.787Z,90.1
2018-01-06T06:18:36.285Z,90
2018-01-06T06:19:38.776Z,89.9
2018-01-06T06:20:41.272Z,89.8
2018-01-06T06:21:43.764Z,90
2018-01-06T06:22:46.267Z,89.9
2018-01-06T06:23:48.746Z,89.9
2018-01-06T06:24:51.249Z,90
2018-01-06T06:25:53.748Z,90
2018-01-06T06:26:56.236Z,90
2018-01-06T06:27:58.728Z,89.8
2018-01-06T06:29:01.221Z,90.4
2018-01-06T06:30:03.716Z,90.4
2018-01-06T06:31:06.799Z,90.4
2018-01-06T06:32:09.291Z,90.5
2018-01-06T06:33:11.781Z,90.5
2018-01-06T06:34:14.259Z,90.6
2018-01-06T06:35:16.769Z,90.6
2018-01-06T06:36:19.262Z,90.5
2018-01-06T06:37:21.747Z,90.6
2018-01-06T06:38:24.233Z,90.5
2018-01-06T06:39:26.725Z,90.5
2018-01-06T06:40:29.216Z,90.4
2018-01-06T06:41:31.720Z,90.5
2018-01-06T06:42:34.266Z,90.5
2018-01-06T06:43:36.755Z,90.6
2018-01-06T06:44:39.549Z,90.6
2018-01-06T06:45:42.324Z,90.7
2018-01-06T06:46:44.812Z,90.7
2018-01-06T06:47:47.304Z,90.6
2018-01-06T06:48:49.794Z,90.6
2018-01-06T06:49:52.311Z,90.2
2018-01-06T06:50:54.765Z,90.2
2018-01-06T06:51:57.265Z,90.1
2018-01-06T06:52:59.754Z,90.1
2018-01-06T06:54:02.246Z,90
2018-01-06T06:55:04.747Z,90.1
2018-01-06T06:56:07.237Z,90.1
2018-01-06T06:57:09.753Z,90.1
2018-01-06T06:58:12.244Z,90.1
2018-01-06T06:59:14.778Z,90.1
2018-01-06T07:00:17.222Z,90
2018-01-06T07:01:19.714Z,90
2018-01-06T07:02:22.203Z,90.1
2018-01-06T07:03:24.983Z,90.1
2018-01-06T07:04:27.768Z,90.1
2018-01-06T07:05:30.260Z,90
2018-01-06T07:06:32.760Z,89.9
2018-01-06T07:07:35.535Z,89.8
2018-01-06T07:08:38.020Z,89.7
2018-01-06T07:09:40.523Z,90
2018-01-06T07:10:43.009Z,90
2018-01-06T07:11:45.517Z,90.1
2018-01-06T07:12:48.296Z,90.1
2018-01-06T07:13:50.785Z,90
2018-01-06T07:14:53.274Z,90
2018-01-06T07:15:55.780Z,90
2018-01-06T07:16:58.272Z,90
2018-01-06T07:18:00.761Z,90
2018-01-06T07:19:03.255Z,90
2018-01-06T07:20:05.754Z,90
2018-01-06T07:21:08.247Z,90
2018-01-06T07:22:10.754Z,89.9
2018-01-06T07:23:13.227Z,90
2018-01-06T07:24:16.020Z,90
2018-01-06T07:25:18.543Z,90
2018-01-06T07:26:21.000Z,90.1
2018-01-06T07:27:23.498Z,90.1
2018-01-06T07:28:25.989Z,90.2
2018-01-06T07:29:28.486Z,90.2
2018-01-06T07:30:30.987Z,90.2
2018-01-06T07:31:33.484Z,90.2
2018-01-06T07:32:35.959Z,90.1
2018-01-06T07:33:38.455Z,90.1
2018-01-06T07:34:40.966Z,90.1
2018-01-06T07:35:43.754Z,90.1
2018-01-06T07:36:46.542Z,90.1
2018-01-06T07:37:49.028Z,90.1
2018-01-06T07:38:51.522Z,90.1
2018-01-06T07:39:54.312Z,90.2
2018-01-06T07:40:56.801Z,90.1
2018-01-06T07:41:59.288Z,90.1
2018-01-06T07:43:01.776Z,90.2
2018-01-06T07:44:04.272Z,90.2
2018-01-06T07:45:06.758Z,90.1
2018-01-06T07:46:09.248Z,90.1
2018-01-06T07:47:11.755Z,90
2018-01-06T07:48:14.243Z,90
2018-01-06T07:49:16.742Z,90
2018-01-06T07:50:19.234Z,90
2018-01-06T07:51:21.729Z,90
2018-01-06T07:52:24.222Z,90
2018-01-06T07:53:26.718Z,90
2018-01-06T07:54:29.204Z,90
2018-01-06T07:55:31.700Z,90
2018-01-06T07:56:34.199Z,89.9
2018-01-06T07:57:36.704Z,89.9
2018-01-06T07:58:39.205Z,89.9
2018-01-06T07:59:41.704Z,90
2018-01-06T08:00:44.195Z,90
2018-01-06T08:01:46.688Z,90
2018-01-06T08:02:49.184Z,90
2018-01-06T08:03:51.679Z,90
2018-01-06T08:04:54.175Z,90
2018-01-06T08:05:56.981Z,90
2018-01-06T08:06:59.452Z,90.1
2018-01-06T08:08:01.962Z,90.1
2018-01-06T08:09:04.738Z,90.2
2018-01-06T08:10:07.228Z,90.2
2018-01-06T08:11:09.724Z,90.2
2018-01-06T08:12:12.222Z,90.2
2018-01-06T08:13:14.710Z,90.1
2018-01-06T08:14:17.214Z,90.2
2018-01-06T08:15:19.995Z,90.1
2018-01-06T08:16:22.494Z,90
2018-01-06T08:17:24.988Z,90
2018-01-06T08:18:27.486Z,90
2018-01-06T08:19:29.976Z,90.1
2018-01-06T08:20:32.487Z,90.1
2018-01-06T08:21:34.983Z,90.1
2018-01-06T08:22:37.471Z,90
2018-01-06T08:23:39.968Z,90
2018-01-06T08:24:42.750Z,90
2018-01-06T08:25:45.539Z,90
2018-01-06T08:26:48.097Z,90.1
2018-01-06T08:27:50.534Z,90.1
2018-01-06T08:28:53.326Z,90
2018-01-06T08:29:56.110Z,90
2018-01-06T08:30:59.454Z,90
2018-01-06T08:32:01.955Z,90
2018-01-06T08:33:04.449Z,90
2018-01-06T08:34:06.944Z,90.2
2018-01-06T08:35:09.440Z,90.2
2018-01-06T08:36:11.935Z,90.2
2018-01-06T08:37:15.294Z,90.2
2018-01-06T08:38:17.793Z,90.2
2018-01-06T08:39:20.312Z,90.2
2018-01-06T08:40:22.831Z,90.2
2018-01-06T08:41:25.344Z,90.2
2018-01-06T08:42:27.838Z,90.2
2018-01-06T08:43:30.327Z,90.2
2018-01-06T08:44:32.831Z,90.3
2018-01-06T08:45:35.332Z,90.5
2018-01-06T08:46:37.824Z,90.5
2018-01-06T08:47:40.316Z,90.5
2018-01-06T08:48:42.818Z,90.5
2018-01-06T08:49:45.314Z,90.6
2018-01-06T08:50:47.819Z,90.7
2018-01-06T08:51:50.308Z,90.5
2018-01-06T08:52:52.796Z,90.5
2018-01-06T08:53:55.298Z,90.3
2018-01-06T08:54:58.085Z,90.4
2018-01-06T08:56:00.863Z,90.4
2018-01-06T08:57:03.360Z,90.4
2018-01-06T08:58:05.861Z,90.5
2018-01-06T08:59:08.642Z,90.5
2018-01-06T09:00:11.140Z,90.5
2018-01-06T09:01:13.632Z,90.5
2018-01-06T09:02:16.422Z,90.4
2018-01-06T09:03:18.924Z,90.5
2018-01-06T09:04:21.702Z,90.5
2018-01-06T09:05:25.912Z,90.5
2018-01-06T09:06:30.809Z,90.5
2018-01-06T09:07:33.290Z,90.5
2018-01-06T09:08:36.079Z,90.4
2018-01-06T09:09:38.575Z,90.4
2018-01-06T09:10:41.364Z,90.4
2018-01-06T09:11:43.866Z,90.5
2018-01-06T09:12:46.672Z,90.4
2018-01-06T09:13:49.160Z,90.4
2018-01-06T09:14:51.995Z,90.5
2018-01-06T09:15:54.489Z,90.6
2018-01-06T09:16:56.976Z,90.7
2018-01-06T09:17:59.538Z,90.6
2018-01-06T09:19:02.022Z,90.7
2018-01-06T09:20:04.541Z,90.6
2018-01-06T09:21:07.021Z,90.6
2018-01-06T09:22:09.523Z,90.5
2018-01-06T09:23:12.017Z,90.5
2018-01-06T09:24:14.515Z,90.4
2018-01-06T09:25:17.011Z,90.3
2018-01-06T09:26:19.512Z,90.2
2018-01-06T09:27:21.991Z,90.3
2018-01-06T09:28:24.504Z,90.3
2018-01-06T09:29:26.990Z,90.3
2018-01-06T09:30:29.772Z,90.3
2018-01-06T09:31:32.282Z,90.3
2018-01-06T09:32:34.774Z,90.4
2018-01-06T09:33:37.551Z,90.3
2018-01-06T09:34:40.040Z,90.4
2018-01-06T09:35:42.542Z,90.4
2018-01-06T09:36:45.055Z,90.4
2018-01-06T09:37:47.556Z,90.4
2018-01-06T09:38:50.033Z,90.5
2018-01-06T09:39:52.537Z,90.5
2018-01-06T09:40:55.032Z,90.5
2018-01-06T09:41:57.832Z,90.5
2018-01-06T09:43:00.316Z,90.5
2018-01-06T09:44:02.826Z,90.6
2018-01-06T09:45:05.323Z,90.5
2018-01-06T09:46:07.817Z,90.5
2018-01-06T09:47:10.427Z,90.4
2018-01-06T09:48:13.082Z,90.5
2018-01-06T09:49:15.886Z,90.4
2018-01-06T09:50:18.648Z,90.4
2018-01-06T09:51:21.135Z,90.5
2018-01-06T09:52:23.647Z,90.5
2018-01-06T09:53:26.181Z,90.6
2018-01-06T09:54:28.804Z,90.6
2018-01-06T09:55:31.368Z,90.7
2018-01-06T09:56:34.156Z,90.7
2018-01-06T09:57:37.022Z,90.8
2018-01-06T09:58:39.548Z,90.8
2018-01-06T09:59:42.040Z,90.7
2018-01-06T10:00:44.567Z,90.7
2018-01-06T10:01:47.057Z,90.7
2018-01-06T10:02:49.564Z,90.7
2018-01-06T10:03:52.142Z,90.7
2018-01-06T10:04:54.682Z,90.7
2018-01-06T10:05:57.200Z,90.7
2018-01-06T10:06:59.717Z,90.8
2018-01-06T10:08:02.277Z,90.7
2018-01-06T10:09:04.801Z,90.7
2018-01-06T10:10:07.335Z,90.7
2018-01-06T10:11:09.831Z,90.7
2018-01-06T10:12:12.621Z,90.8
2018-01-06T10:13:15.123Z,90.7
2018-01-06T10:14:17.611Z,90.7
2018-01-06T10:15:20.105Z,90.7
2018-01-06T10:16:22.601Z,90.7
2018-01-06T10:17:25.428Z,90.7
2018-01-06T10:18:27.940Z,90.7
2018-01-06T10:19:30.465Z,90.8
2018-01-06T10:20:33.191Z,90.8
2018-01-06T10:21:35.736Z,90.8
2018-01-06T10:22:38.533Z,90.8
2018-01-06T10:23:41.318Z,90.8
2018-01-06T10:24:43.826Z,90.8
2018-01-06T10:25:46.320Z,90.8
2018-01-06T10:26:48.813Z,90.8
2018-01-06T10:27:51.335Z,90.7
2018-01-06T10:28:53.833Z,90.8
2018-01-06T10:29:56.394Z,90.8
2018-01-06T10:30:58.890Z,90.8
2018-01-06T10:32:01.647Z,90.8
2018-01-06T10:33:04.196Z,90.8
2018-01-06T10:34:06.931Z,90.7
2018-01-06T10:35:10.043Z,90.8
2018-01-06T10:36:12.571Z,90.7
2018-01-06T10:37:15.365Z,90.7
2018-01-06T10:38:17.867Z,90.5
2018-01-06T10:39:20.663Z,90.7
2018-01-06T10:40:23.155Z,90.8
2018-01-06T10:41:25.641Z,90.7
2018-01-06T10:42:28.141Z,90.8
2018-01-06T10:43:30.643Z,90.7
2018-01-06T10:44:33.145Z,90.8
2018-01-06T10:45:35.619Z,90.9
2018-01-06T10:46:38.721Z,90.8
2018-01-06T10:47:41.793Z,90.8
2018-01-06T10:48:44.581Z,90.9
2018-01-06T10:49:47.365Z,90.8
2018-01-06T10:50:49.854Z,90.8
2018-01-06T10:51:52.348Z,90.7
2018-01-06T10:52:55.437Z,90.7
2018-01-06T10:53:57.936Z,90.6
2018-01-06T10:55:00.720Z,90.6
2018-01-06T10:56:03.223Z,90.7
2018-01-06T10:57:06.005Z,90.7
2018-01-06T10:58:08.508Z,90.7
2018-01-06T10:59:10.997Z,90.8
2018-01-06T11:00:13.480Z,90.9
2018-01-06T11:01:16.267Z,90.8
2018-01-06T11:02:19.057Z,90.7
2018-01-06T11:03:21.554Z,90.9
2018-01-06T11:04:24.047Z,90.9
2018-01-06T11:05:26.836Z,91
2018-01-06T11:06:29.350Z,91
2018-01-06T11:07:31.861Z,91
2018-01-06T11:08:34.358Z,91
2018-01-06T11:09:36.839Z,90.8
2018-01-06T11:10:39.340Z,90.8
2018-01-06T11:11:41.831Z,90.9
2018-01-06T11:12:44.336Z,90.9
2018-01-06T11:13:46.827Z,90.9
2018-01-06T11:14:49.322Z,90.9
2018-01-06T11:15:51.821Z,90.8
2018-01-06T11:16:54.307Z,90.7
2018-01-06T11:17:56.798Z,90.8
2018-01-06T11:18:59.320Z,90.8
2018-01-06T11:20:02.087Z,90.9
2018-01-06T11:21:04.875Z,90.9
2018-01-06T11:22:07.365Z,90.9
2018-01-06T11:23:10.154Z,90.9
2018-01-06T11:24:12.655Z,90.9
2018-01-06T11:25:15.153Z,90.9
2018-01-06T11:26:17.639Z,91
2018-01-06T11:27:20.134Z,91.2
2018-01-06T11:28:22.631Z,91.2
2018-01-06T11:29:25.131Z,91.1
2018-01-06T11:30:27.640Z,90.9
2018-01-06T11:31:30.130Z,90.8
2018-01-06T11:32:32.627Z,90.9
2018-01-06T11:33:35.136Z,90.9
2018-01-06T11:34:37.630Z,90.9
2018-01-06T11:35:40.123Z,90.9
2018-01-06T11:36:42.612Z,91
2018-01-06T11:37:45.100Z,91.1
2018-01-06T11:38:47.599Z,91
2018-01-06T11:39:50.098Z,90.9
2018-01-06T11:40:52.574Z,90.9
2018-01-06T11:41:55.079Z,91
2018-01-06T11:42:57.583Z,91
2018-01-06T11:44:00.365Z,91
2018-01-06T11:45:02.862Z,91.1
2018-01-06T11:46:05.350Z,91.1
2018-01-06T11:47:07.844Z,91.1
2018-01-06T11:48:10.394Z,90.9
2018-01-06T11:49:12.845Z,90.9
2018-01-06T11:50:15.338Z,90.9
2018-01-06T11:51:18.131Z,90.9
2018-01-06T11:52:20.625Z,91
2018-01-06T11:53:23.129Z,90.8
2018-01-06T11:54:25.617Z,90.9
2018-01-06T11:55:28.115Z,91
2018-01-06T11:56:30.597Z,90.9
2018-01-06T11:57:33.107Z,90.9
2018-01-06T11:58:35.881Z,90.9
2018-01-06T11:59:38.380Z,90.9
2018-01-06T12:00:40.878Z,90.9
2018-01-06T12:01:43.379Z,90.9
2018-01-06T12:02:45.871Z,90.9
2018-01-06T12:03:48.367Z,90.8
2018-01-06T12:04:50.854Z,90.9
2018-01-06T12:05:53.354Z,91
2018-01-06T12:06:56.153Z,91
2018-01-06T12:07:58.652Z,91
2018-01-06T12:09:01.142Z,90.8
2018-01-06T12:10:03.643Z,90.9
2018-01-06T12:11:06.136Z,91
2018-01-06T12:12:08.630Z,91.1
2018-01-06T12:13:11.410Z,91
2018-01-06T12:14:13.922Z,90.9
2018-01-06T12:15:16.388Z,90.8
2018-01-06T12:16:18.895Z,90.8
2018-01-06T12:17:21.381Z,90.9
2018-01-06T12:18:24.165Z,90.9
2018-01-06T12:19:26.669Z,91.1
2018-01-06T12:20:29.457Z,91
2018-01-06T12:21:32.240Z,91.1
2018-01-06T12:22:34.738Z,91.1
2018-01-06T12:23:37.223Z,91
2018-01-06T12:24:39.722Z,91
2018-01-06T12:26:14.623Z,91
2018-01-06T12:27:17.115Z,91.1
2018-01-06T12:28:19.614Z,91.1
2018-01-06T12:29:22.116Z,91.1
2018-01-06T12:30:24.610Z,91.1
2018-01-06T12:31:27.108Z,91.1
2018-01-06T12:32:29.884Z,91.1
2018-01-06T12:33:32.396Z,91.2
2018-01-06T12:34:34.886Z,91.3
2018-01-06T12:35:37.388Z,91.3
2018-01-06T12:36:39.890Z,91.3
2018-01-06T12:37:42.385Z,91.1
2018-01-06T12:38:44.881Z,91
2018-01-06T12:39:47.380Z,91
2018-01-06T12:40:49.862Z,91.1
2018-01-06T12:41:52.361Z,91.1
2018-01-06T12:42:54.869Z,91.2
2018-01-06T12:43:57.365Z,91.2
2018-01-06T12:44:59.858Z,91.2
2018-01-06T12:46:02.361Z,91
2018-01-06T12:47:04.855Z,91
2018-01-06T12:48:07.353Z,91
2018-01-06T12:49:09.853Z,90.9
2018-01-06T12:50:12.338Z,91
2018-01-06T12:51:14.831Z,91.1
2018-01-06T12:52:17.341Z,91.1
2018-01-06T12:53:19.833Z,91.1
2018-01-06T12:54:22.339Z,91.1
2018-01-06T12:55:24.872Z,91.1
2018-01-06T12:56:27.363Z,91.3
2018-01-06T12:57:29.878Z,91.4
2018-01-06T12:58:32.375Z,91.4
2018-01-06T12:59:34.864Z,91.3
2018-01-06T13:00:37.662Z,91.2
2018-01-06T13:01:40.148Z,91.2
2018-01-06T13:02:42.646Z,91.1
2018-01-06T13:03:45.297Z,91.1
2018-01-06T13:04:48.438Z,91
2018-01-06T13:05:51.456Z,91
2018-01-06T13:06:53.970Z,90.9
2018-01-06T13:07:56.463Z,90.9
2018-01-06T13:08:58.964Z,90.9
2018-01-06T13:10:01.467Z,91
2018-01-06T13:11:03.971Z,91
2018-01-06T13:12:06.470Z,90.9
2018-01-06T13:13:09.278Z,90.8
2018-01-06T13:14:11.825Z,90.9
2018-01-06T13:15:14.402Z,90.7
2018-01-06T13:16:16.890Z,90.7
2018-01-06T13:17:19.385Z,90.8
2018-01-06T13:18:22.179Z,90.8
2018-01-06T13:19:24.672Z,90.8
2018-01-06T13:20:27.467Z,90.9
2018-01-06T13:21:29.960Z,91
2018-01-06T13:22:32.738Z,91.1
2018-01-06T13:23:35.545Z,91.1
2018-01-06T13:24:38.043Z,91.1
2018-01-06T13:25:40.526Z,91
2018-01-06T13:26:43.026Z,90.9
2018-01-06T13:27:45.524Z,90.9
2018-01-06T13:28:48.034Z,90.9
2018-01-06T13:29:50.537Z,90.7
2018-01-06T13:30:53.014Z,90.8
2018-01-06T13:31:55.517Z,90.9
2018-01-06T13:32:58.023Z,91
2018-01-06T13:34:00.512Z,90.9
2018-01-06T13:35:03.597Z,90.9
2018-01-06T13:36:06.119Z,91
2018-01-06T13:37:08.585Z,91
2018-01-06T13:38:11.140Z,90.9
2018-01-06T13:39:13.883Z,90.7
2018-01-06T13:40:16.367Z,90.7
2018-01-06T13:41:19.150Z,90.8
2018-01-06T13:42:21.661Z,90.8
2018-01-06T13:43:24.157Z,90.7
2018-01-06T13:44:26.933Z,90.5
2018-01-06T13:45:29.436Z,90.5
2018-01-06T13:46:31.931Z,90.4
2018-01-06T13:47:34.416Z,90.4
2018-01-06T13:48:37.083Z,90.5
2018-01-06T13:49:39.854Z,90.6
2018-01-06T13:50:42.657Z,90.8
2018-01-06T13:51:45.152Z,90.8
2018-01-06T13:52:47.649Z,90.7
2018-01-06T13:53:50.149Z,90.7
2018-01-06T13:54:52.654Z,90.7
2018-01-06T13:55:55.141Z,90.7
2018-01-06T13:56:57.938Z,90.7
2018-01-06T13:58:00.430Z,90.6
2018-01-06T13:59:02.951Z,90.6
2018-01-06T14:00:05.510Z,90.6
2018-01-06T14:01:08.216Z,90.7